sensor_id;sensor_type;location;lat;lon;timestamp;P1;durP1;ratioP1;P2;durP2;ratioP2
52368;SDS011;38298;50.346;3.526;2024-01-15T00:02:00;41.15;;;14.77;;
52368;SDS011;38298;50.346;3.526;2024-01-15T00:04:26;40.92;;;15.43;;
52368;SDS011;38298;50.346;3.526;2024-01-15T00:06:53;39.50;;;14.48;;
52368;SDS011;38298;50.346;3.526;2024-01-15T00:09:19;42.03;;;15.00;;
52368;SDS011;38298;50.346;3.526;2024-01-15T00:11:45;42.70;;;14.93;;
52368;SDS011;38298;50.346;3.526;2024-01-15T00:14:11;37.45;;;14.00;;
52368;SDS011;38298;50.346;3.526;2024-01-15T00:16:40;40.90;;;15.43;;
52368;SDS011;38298;50.346;3.526;2024-01-15T00:19:06;39.78;;;14.32;;
52368;SDS011;38298;50.346;3.526;2024-01-15T00:21:32;47.47;;;15.50;;
52368;SDS011;38298;50.346;3.526;2024-01-15T00:23:58;42.95;;;14.77;;
52368;SDS011;38298;50.346;3.526;2024-01-15T00:26:24;41.20;;;14.88;;
52368;SDS011;38298;50.346;3.526;2024-01-15T00:28:50;41.72;;;15.00;;
52368;SDS011;38298;50.346;3.526;2024-01-15T00:31:16;39.72;;;13.90;;
52368;SDS011;38298;50.346;3.526;2024-01-15T00:33:43;39.78;;;13.80;;
52368;SDS011;38298;50.346;3.526;2024-01-15T00:36:09;39.15;;;13.38;;
52368;SDS011;38298;50.346;3.526;2024-01-15T00:38:35;38.35;;;14.27;;
52368;SDS011;38298;50.346;3.526;2024-01-15T00:41:01;39.67;;;14.18;;
52368;SDS011;38298;50.346;3.526;2024-01-15T00:43:27;40.67;;;13.55;;
52368;SDS011;38298;50.346;3.526;2024-01-15T00:45:53;37.78;;;14.30;;
52368;SDS011;38298;50.346;3.526;2024-01-15T00:48:19;37.83;;;13.98;;
52368;SDS011;38298;50.346;3.526;2024-01-15T00:50:45;40.33;;;14.65;;
52368;SDS011;38298;50.346;3.526;2024-01-15T00:53:11;33.67;;;13.32;;
52368;SDS011;38298;50.346;3.526;2024-01-15T00:55:37;38.83;;;14.43;;
52368;SDS011;38298;50.346;3.526;2024-01-15T00:58:03;37.28;;;12.88;;
52368;SDS011;38298;50.346;3.526;2024-01-15T01:00:29;39.40;;;14.07;;
52368;SDS011;38298;50.346;3.526;2024-01-15T01:02:55;39.03;;;13.23;;
52368;SDS011;38298;50.346;3.526;2024-01-15T01:05:21;39.05;;;13.70;;
52368;SDS011;38298;50.346;3.526;2024-01-15T01:07:47;39.03;;;13.25;;
52368;SDS011;38298;50.346;3.526;2024-01-15T01:10:13;40.90;;;13.50;;
52368;SDS011;38298;50.346;3.526;2024-01-15T01:12:39;35.45;;;14.20;;
52368;SDS011;38298;50.346;3.526;2024-01-15T01:15:05;37.00;;;13.52;;
52368;SDS011;38298;50.346;3.526;2024-01-15T01:17:32;40.25;;;15.45;;
52368;SDS011;38298;50.346;3.526;2024-01-15T01:19:58;44.70;;;14.27;;
52368;SDS011;38298;50.346;3.526;2024-01-15T01:22:24;39.00;;;13.75;;
52368;SDS011;38298;50.346;3.526;2024-01-15T01:24:50;39.33;;;13.30;;
52368;SDS011;38298;50.346;3.526;2024-01-15T01:27:16;45.25;;;14.65;;
52368;SDS011;38298;50.346;3.526;2024-01-15T01:29:42;36.75;;;13.05;;
52368;SDS011;38298;50.346;3.526;2024-01-15T01:32:08;38.95;;;12.63;;
52368;SDS011;38298;50.346;3.526;2024-01-15T01:34:39;35.35;;;13.15;;
52368;SDS011;38298;50.346;3.526;2024-01-15T01:37:06;38.13;;;13.73;;
52368;SDS011;38298;50.346;3.526;2024-01-15T01:39:32;36.92;;;13.43;;
52368;SDS011;38298;50.346;3.526;2024-01-15T01:41:58;37.45;;;13.60;;
52368;SDS011;38298;50.346;3.526;2024-01-15T01:44:24;37.63;;;13.25;;
52368;SDS011;38298;50.346;3.526;2024-01-15T01:46:50;38.75;;;12.10;;
52368;SDS011;38298;50.346;3.526;2024-01-15T01:49:16;34.60;;;12.82;;
52368;SDS011;38298;50.346;3.526;2024-01-15T01:51:43;32.58;;;12.77;;
52368;SDS011;38298;50.346;3.526;2024-01-15T01:54:09;35.42;;;12.88;;
52368;SDS011;38298;50.346;3.526;2024-01-15T01:56:38;37.17;;;13.82;;
52368;SDS011;38298;50.346;3.526;2024-01-15T01:59:04;35.90;;;13.60;;
52368;SDS011;38298;50.346;3.526;2024-01-15T02:01:31;34.80;;;12.52;;
52368;SDS011;38298;50.346;3.526;2024-01-15T02:03:57;32.42;;;12.32;;
52368;SDS011;38298;50.346;3.526;2024-01-15T02:06:24;38.85;;;13.90;;
52368;SDS011;38298;50.346;3.526;2024-01-15T02:08:50;34.90;;;11.73;;
52368;SDS011;38298;50.346;3.526;2024-01-15T02:11:16;39.30;;;12.88;;
52368;SDS011;38298;50.346;3.526;2024-01-15T02:13:42;40.47;;;13.00;;
52368;SDS011;38298;50.346;3.526;2024-01-15T02:16:08;33.80;;;12.38;;
52368;SDS011;38298;50.346;3.526;2024-01-15T02:18:43;37.38;;;12.90;;
52368;SDS011;38298;50.346;3.526;2024-01-15T02:21:09;33.78;;;12.88;;
52368;SDS011;38298;50.346;3.526;2024-01-15T02:23:37;34.92;;;12.63;;
52368;SDS011;38298;50.346;3.526;2024-01-15T02:26:03;33.00;;;13.45;;
52368;SDS011;38298;50.346;3.526;2024-01-15T02:28:30;35.30;;;13.32;;
52368;SDS011;38298;50.346;3.526;2024-01-15T02:30:56;41.58;;;14.02;;
52368;SDS011;38298;50.346;3.526;2024-01-15T02:33:22;35.78;;;13.10;;
52368;SDS011;38298;50.346;3.526;2024-01-15T02:35:48;41.55;;;13.63;;
52368;SDS011;38298;50.346;3.526;2024-01-15T02:38:17;39.58;;;14.25;;
52368;SDS011;38298;50.346;3.526;2024-01-15T02:40:43;41.28;;;14.45;;
52368;SDS011;38298;50.346;3.526;2024-01-15T02:43:09;38.70;;;14.07;;
52368;SDS011;38298;50.346;3.526;2024-01-15T02:45:36;35.97;;;14.27;;
52368;SDS011;38298;50.346;3.526;2024-01-15T02:48:02;44.78;;;14.27;;
52368;SDS011;38298;50.346;3.526;2024-01-15T02:50:28;42.10;;;15.18;;
52368;SDS011;38298;50.346;3.526;2024-01-15T02:52:54;42.22;;;13.85;;
52368;SDS011;38298;50.346;3.526;2024-01-15T02:55:20;40.05;;;14.50;;
52368;SDS011;38298;50.346;3.526;2024-01-15T02:57:46;36.42;;;13.38;;
52368;SDS011;38298;50.346;3.526;2024-01-15T03:00:12;41.97;;;14.93;;
52368;SDS011;38298;50.346;3.526;2024-01-15T03:02:38;40.65;;;15.75;;
52368;SDS011;38298;50.346;3.526;2024-01-15T03:05:06;43.05;;;13.70;;
52368;SDS011;38298;50.346;3.526;2024-01-15T03:07:32;42.22;;;15.43;;
52368;SDS011;38298;50.346;3.526;2024-01-15T03:09:58;42.78;;;14.18;;
52368;SDS011;38298;50.346;3.526;2024-01-15T03:12:24;35.15;;;13.50;;
52368;SDS011;38298;50.346;3.526;2024-01-15T03:14:50;47.05;;;15.80;;
52368;SDS011;38298;50.346;3.526;2024-01-15T03:17:16;40.42;;;14.13;;
52368;SDS011;38298;50.346;3.526;2024-01-15T03:19:42;38.25;;;14.68;;
52368;SDS011;38298;50.346;3.526;2024-01-15T03:22:08;40.97;;;14.20;;
52368;SDS011;38298;50.346;3.526;2024-01-15T03:24:34;44.58;;;15.30;;
52368;SDS011;38298;50.346;3.526;2024-01-15T03:27:01;40.85;;;14.55;;
52368;SDS011;38298;50.346;3.526;2024-01-15T03:29:28;39.85;;;14.32;;
52368;SDS011;38298;50.346;3.526;2024-01-15T03:31:54;37.70;;;15.35;;
52368;SDS011;38298;50.346;3.526;2024-01-15T03:34:20;35.40;;;13.55;;
52368;SDS011;38298;50.346;3.526;2024-01-15T03:36:46;40.55;;;14.63;;
52368;SDS011;38298;50.346;3.526;2024-01-15T03:39:15;36.22;;;13.57;;
52368;SDS011;38298;50.346;3.526;2024-01-15T03:41:41;40.28;;;14.43;;
52368;SDS011;38298;50.346;3.526;2024-01-15T03:44:07;42.30;;;14.98;;
52368;SDS011;38298;50.346;3.526;2024-01-15T03:46:33;37.92;;;13.93;;
52368;SDS011;38298;50.346;3.526;2024-01-15T03:48:59;41.65;;;15.30;;
52368;SDS011;38298;50.346;3.526;2024-01-15T03:51:25;38.53;;;14.82;;
52368;SDS011;38298;50.346;3.526;2024-01-15T03:53:51;37.03;;;13.95;;
52368;SDS011;38298;50.346;3.526;2024-01-15T03:56:17;36.78;;;13.43;;
52368;SDS011;38298;50.346;3.526;2024-01-15T03:58:43;35.67;;;12.68;;
52368;SDS011;38298;50.346;3.526;2024-01-15T04:01:09;37.22;;;13.50;;
52368;SDS011;38298;50.346;3.526;2024-01-15T04:03:35;44.40;;;14.07;;
52368;SDS011;38298;50.346;3.526;2024-01-15T04:06:02;36.42;;;13.25;;
52368;SDS011;38298;50.346;3.526;2024-01-15T04:08:28;34.75;;;12.95;;
52368;SDS011;38298;50.346;3.526;2024-01-15T04:10:54;40.42;;;13.93;;
52368;SDS011;38298;50.346;3.526;2024-01-15T04:13:20;34.00;;;13.57;;
52368;SDS011;38298;50.346;3.526;2024-01-15T04:15:46;36.75;;;13.65;;
52368;SDS011;38298;50.346;3.526;2024-01-15T04:18:12;34.75;;;14.20;;
52368;SDS011;38298;50.346;3.526;2024-01-15T04:20:38;38.17;;;14.57;;
52368;SDS011;38298;50.346;3.526;2024-01-15T04:23:04;36.65;;;14.18;;
52368;SDS011;38298;50.346;3.526;2024-01-15T04:25:30;45.38;;;15.07;;
52368;SDS011;38298;50.346;3.526;2024-01-15T04:27:57;44.42;;;14.82;;
52368;SDS011;38298;50.346;3.526;2024-01-15T04:30:22;48.08;;;14.57;;
52368;SDS011;38298;50.346;3.526;2024-01-15T04:32:48;50.67;;;15.18;;
52368;SDS011;38298;50.346;3.526;2024-01-15T04:35:14;52.08;;;16.73;;
52368;SDS011;38298;50.346;3.526;2024-01-15T04:37:41;46.72;;;15.77;;
52368;SDS011;38298;50.346;3.526;2024-01-15T04:40:07;45.28;;;15.75;;
52368;SDS011;38298;50.346;3.526;2024-01-15T04:42:33;45.60;;;14.15;;
52368;SDS011;38298;50.346;3.526;2024-01-15T04:44:59;38.90;;;14.45;;
52368;SDS011;38298;50.346;3.526;2024-01-15T04:47:25;36.83;;;13.02;;
52368;SDS011;38298;50.346;3.526;2024-01-15T04:49:51;39.35;;;13.25;;
52368;SDS011;38298;50.346;3.526;2024-01-15T04:52:17;36.08;;;12.55;;
52368;SDS011;38298;50.346;3.526;2024-01-15T04:54:43;35.10;;;12.30;;
52368;SDS011;38298;50.346;3.526;2024-01-15T04:57:09;33.47;;;11.65;;
52368;SDS011;38298;50.346;3.526;2024-01-15T04:59:35;33.53;;;12.07;;
52368;SDS011;38298;50.346;3.526;2024-01-15T05:02:01;30.98;;;11.82;;
52368;SDS011;38298;50.346;3.526;2024-01-15T05:04:27;32.75;;;11.82;;
52368;SDS011;38298;50.346;3.526;2024-01-15T05:06:55;25.80;;;10.25;;
52368;SDS011;38298;50.346;3.526;2024-01-15T05:09:21;31.25;;;10.95;;
52368;SDS011;38298;50.346;3.526;2024-01-15T05:11:47;33.08;;;10.75;;
52368;SDS011;38298;50.346;3.526;2024-01-15T05:14:13;25.65;;;9.68;;
52368;SDS011;38298;50.346;3.526;2024-01-15T05:16:39;23.88;;;9.82;;
52368;SDS011;38298;50.346;3.526;2024-01-15T05:19:07;21.70;;;9.55;;
52368;SDS011;38298;50.346;3.526;2024-01-15T05:21:33;20.38;;;8.25;;
52368;SDS011;38298;50.346;3.526;2024-01-15T05:23:59;21.27;;;8.45;;
52368;SDS011;38298;50.346;3.526;2024-01-15T05:26:25;17.35;;;8.05;;
52368;SDS011;38298;50.346;3.526;2024-01-15T05:28:51;17.85;;;7.45;;
52368;SDS011;38298;50.346;3.526;2024-01-15T05:31:17;17.63;;;7.57;;
52368;SDS011;38298;50.346;3.526;2024-01-15T05:33:43;16.17;;;7.63;;
52368;SDS011;38298;50.346;3.526;2024-01-15T05:36:09;23.00;;;7.90;;
52368;SDS011;38298;50.346;3.526;2024-01-15T05:38:35;18.45;;;8.40;;
52368;SDS011;38298;50.346;3.526;2024-01-15T05:41:01;18.08;;;6.57;;
52368;SDS011;38298;50.346;3.526;2024-01-15T05:43:27;14.68;;;6.82;;
52368;SDS011;38298;50.346;3.526;2024-01-15T05:45:53;14.68;;;6.63;;
52368;SDS011;38298;50.346;3.526;2024-01-15T05:48:19;15.27;;;6.78;;
52368;SDS011;38298;50.346;3.526;2024-01-15T05:50:45;13.73;;;6.60;;
52368;SDS011;38298;50.346;3.526;2024-01-15T05:53:11;15.57;;;6.57;;
52368;SDS011;38298;50.346;3.526;2024-01-15T05:55:37;13.50;;;6.03;;
52368;SDS011;38298;50.346;3.526;2024-01-15T05:58:04;9.80;;;5.10;;
52368;SDS011;38298;50.346;3.526;2024-01-15T06:00:30;11.80;;;5.88;;
52368;SDS011;38298;50.346;3.526;2024-01-15T06:02:58;12.82;;;5.55;;
52368;SDS011;38298;50.346;3.526;2024-01-15T06:05:24;14.50;;;6.05;;
52368;SDS011;38298;50.346;3.526;2024-01-15T06:07:50;13.40;;;5.90;;
52368;SDS011;38298;50.346;3.526;2024-01-15T06:10:16;11.40;;;5.90;;
52368;SDS011;38298;50.346;3.526;2024-01-15T06:12:43;13.32;;;5.82;;
52368;SDS011;38298;50.346;3.526;2024-01-15T06:15:09;16.42;;;5.38;;
52368;SDS011;38298;50.346;3.526;2024-01-15T06:17:35;11.10;;;4.82;;
52368;SDS011;38298;50.346;3.526;2024-01-15T06:20:02;11.18;;;4.90;;
52368;SDS011;38298;50.346;3.526;2024-01-15T06:22:29;12.63;;;4.65;;
52368;SDS011;38298;50.346;3.526;2024-01-15T06:24:55;13.45;;;4.68;;
52368;SDS011;38298;50.346;3.526;2024-01-15T06:27:21;10.25;;;4.15;;
52368;SDS011;38298;50.346;3.526;2024-01-15T06:29:47;8.00;;;3.72;;
52368;SDS011;38298;50.346;3.526;2024-01-15T06:32:13;7.50;;;3.40;;
52368;SDS011;38298;50.346;3.526;2024-01-15T06:34:39;11.35;;;3.10;;
52368;SDS011;38298;50.346;3.526;2024-01-15T06:37:06;7.75;;;2.78;;
52368;SDS011;38298;50.346;3.526;2024-01-15T06:39:32;8.65;;;2.90;;
52368;SDS011;38298;50.346;3.526;2024-01-15T06:41:58;5.38;;;2.38;;
52368;SDS011;38298;50.346;3.526;2024-01-15T06:44:24;6.70;;;3.10;;
52368;SDS011;38298;50.346;3.526;2024-01-15T06:46:50;5.30;;;2.60;;
52368;SDS011;38298;50.346;3.526;2024-01-15T06:49:16;3.85;;;2.40;;
52368;SDS011;38298;50.346;3.526;2024-01-15T06:51:42;5.28;;;2.17;;
52368;SDS011;38298;50.346;3.526;2024-01-15T06:54:08;4.13;;;2.40;;
52368;SDS011;38298;50.346;3.526;2024-01-15T06:56:34;4.55;;;2.47;;
52368;SDS011;38298;50.346;3.526;2024-01-15T06:59:01;23.27;;;2.58;;
52368;SDS011;38298;50.346;3.526;2024-01-15T07:01:28;7.10;;;2.28;;
52368;SDS011;38298;50.346;3.526;2024-01-15T07:03:55;6.78;;;2.40;;
52368;SDS011;38298;50.346;3.526;2024-01-15T07:06:21;6.75;;;2.33;;
52368;SDS011;38298;50.346;3.526;2024-01-15T07:08:47;9.48;;;2.40;;
52368;SDS011;38298;50.346;3.526;2024-01-15T07:11:13;5.57;;;2.40;;
52368;SDS011;38298;50.346;3.526;2024-01-15T07:13:39;4.60;;;2.22;;
52368;SDS011;38298;50.346;3.526;2024-01-15T07:16:05;12.60;;;2.85;;
52368;SDS011;38298;50.346;3.526;2024-01-15T07:18:32;4.25;;;2.00;;
52368;SDS011;38298;50.346;3.526;2024-01-15T07:20:58;5.63;;;2.25;;
52368;SDS011;38298;50.346;3.526;2024-01-15T07:23:26;6.60;;;2.33;;
52368;SDS011;38298;50.346;3.526;2024-01-15T07:25:52;4.68;;;1.85;;
52368;SDS011;38298;50.346;3.526;2024-01-15T07:28:19;3.75;;;1.80;;
52368;SDS011;38298;50.346;3.526;2024-01-15T07:30:45;7.68;;;2.28;;
52368;SDS011;38298;50.346;3.526;2024-01-15T07:33:11;11.93;;;2.17;;
52368;SDS011;38298;50.346;3.526;2024-01-15T07:35:37;7.03;;;2.45;;
52368;SDS011;38298;50.346;3.526;2024-01-15T07:38:03;3.08;;;1.88;;
52368;SDS011;38298;50.346;3.526;2024-01-15T07:40:29;5.63;;;2.20;;
52368;SDS011;38298;50.346;3.526;2024-01-15T07:42:55;5.95;;;2.40;;
52368;SDS011;38298;50.346;3.526;2024-01-15T07:45:21;11.70;;;2.53;;
52368;SDS011;38298;50.346;3.526;2024-01-15T07:47:47;6.47;;;1.92;;
52368;SDS011;38298;50.346;3.526;2024-01-15T07:50:14;8.02;;;3.05;;
52368;SDS011;38298;50.346;3.526;2024-01-15T07:52:40;8.00;;;1.90;;
52368;SDS011;38298;50.346;3.526;2024-01-15T07:55:07;5.03;;;1.65;;
52368;SDS011;38298;50.346;3.526;2024-01-15T07:57:33;7.22;;;1.30;;
52368;SDS011;38298;50.346;3.526;2024-01-15T08:00:00;3.67;;;1.48;;
52368;SDS011;38298;50.346;3.526;2024-01-15T08:02:28;2.20;;;1.30;;
52368;SDS011;38298;50.346;3.526;2024-01-15T08:04:54;8.50;;;1.40;;
52368;SDS011;38298;50.346;3.526;2024-01-15T08:07:20;8.75;;;2.20;;
52368;SDS011;38298;50.346;3.526;2024-01-15T08:09:46;6.03;;;1.80;;
52368;SDS011;38298;50.346;3.526;2024-01-15T08:12:14;6.93;;;2.03;;
52368;SDS011;38298;50.346;3.526;2024-01-15T08:14:40;2.50;;;1.85;;
52368;SDS011;38298;50.346;3.526;2024-01-15T08:17:06;4.45;;;2.00;;
52368;SDS011;38298;50.346;3.526;2024-01-15T08:19:32;6.13;;;2.20;;
52368;SDS011;38298;50.346;3.526;2024-01-15T08:21:58;13.20;;;2.50;;
52368;SDS011;38298;50.346;3.526;2024-01-15T08:24:24;8.25;;;2.55;;
52368;SDS011;38298;50.346;3.526;2024-01-15T08:26:50;5.45;;;2.42;;
52368;SDS011;38298;50.346;3.526;2024-01-15T08:29:16;6.72;;;1.60;;
52368;SDS011;38298;50.346;3.526;2024-01-15T08:31:43;3.63;;;1.88;;
52368;SDS011;38298;50.346;3.526;2024-01-15T08:34:09;2.53;;;1.65;;
52368;SDS011;38298;50.346;3.526;2024-01-15T08:36:35;4.38;;;2.15;;
52368;SDS011;38298;50.346;3.526;2024-01-15T08:39:01;6.07;;;2.10;;
52368;SDS011;38298;50.346;3.526;2024-01-15T08:41:29;7.45;;;1.83;;
52368;SDS011;38298;50.346;3.526;2024-01-15T08:43:55;4.75;;;2.13;;
52368;SDS011;38298;50.346;3.526;2024-01-15T08:46:21;6.35;;;2.05;;
52368;SDS011;38298;50.346;3.526;2024-01-15T08:48:49;3.45;;;1.88;;
52368;SDS011;38298;50.346;3.526;2024-01-15T08:51:15;9.90;;;1.90;;
52368;SDS011;38298;50.346;3.526;2024-01-15T08:53:41;5.07;;;1.83;;
52368;SDS011;38298;50.346;3.526;2024-01-15T08:56:07;5.15;;;1.70;;
52368;SDS011;38298;50.346;3.526;2024-01-15T08:58:33;6.10;;;2.13;;
52368;SDS011;38298;50.346;3.526;2024-01-15T09:00:59;11.10;;;2.03;;
52368;SDS011;38298;50.346;3.526;2024-01-15T09:03:25;5.47;;;2.10;;
52368;SDS011;38298;50.346;3.526;2024-01-15T09:05:51;9.23;;;2.38;;
52368;SDS011;38298;50.346;3.526;2024-01-15T09:08:17;6.95;;;1.92;;
52368;SDS011;38298;50.346;3.526;2024-01-15T09:10:44;6.55;;;2.30;;
52368;SDS011;38298;50.346;3.526;2024-01-15T09:13:10;4.45;;;2.13;;
52368;SDS011;38298;50.346;3.526;2024-01-15T09:15:36;5.22;;;1.83;;
52368;SDS011;38298;50.346;3.526;2024-01-15T09:18:02;8.73;;;2.20;;
52368;SDS011;38298;50.346;3.526;2024-01-15T09:20:30;6.40;;;1.80;;
52368;SDS011;38298;50.346;3.526;2024-01-15T09:22:56;6.20;;;2.22;;
52368;SDS011;38298;50.346;3.526;2024-01-15T09:25:22;4.15;;;1.70;;
52368;SDS011;38298;50.346;3.526;2024-01-15T09:27:48;3.95;;;2.05;;
52368;SDS011;38298;50.346;3.526;2024-01-15T09:30:14;6.90;;;2.28;;
52368;SDS011;38298;50.346;3.526;2024-01-15T09:32:40;7.10;;;2.00;;
52368;SDS011;38298;50.346;3.526;2024-01-15T09:35:06;10.25;;;2.25;;
52368;SDS011;38298;50.346;3.526;2024-01-15T09:37:32;7.88;;;2.15;;
52368;SDS011;38298;50.346;3.526;2024-01-15T09:39:58;5.80;;;2.08;;
52368;SDS011;38298;50.346;3.526;2024-01-15T09:42:24;6.03;;;2.08;;
52368;SDS011;38298;50.346;3.526;2024-01-15T09:44:51;8.27;;;2.40;;
52368;SDS011;38298;50.346;3.526;2024-01-15T09:47:17;6.40;;;2.03;;
52368;SDS011;38298;50.346;3.526;2024-01-15T09:49:46;4.75;;;2.08;;
52368;SDS011;38298;50.346;3.526;2024-01-15T09:52:12;5.30;;;2.50;;
52368;SDS011;38298;50.346;3.526;2024-01-15T09:54:40;5.90;;;2.00;;
52368;SDS011;38298;50.346;3.526;2024-01-15T09:57:09;6.30;;;2.38;;
52368;SDS011;38298;50.346;3.526;2024-01-15T09:59:34;8.68;;;1.85;;
52368;SDS011;38298;50.346;3.526;2024-01-15T10:02:01;6.55;;;2.28;;
52368;SDS011;38298;50.346;3.526;2024-01-15T10:04:27;10.27;;;3.00;;
52368;SDS011;38298;50.346;3.526;2024-01-15T10:06:53;11.15;;;3.90;;
52368;SDS011;38298;50.346;3.526;2024-01-15T10:09:20;5.25;;;2.33;;
52368;SDS011;38298;50.346;3.526;2024-01-15T10:11:46;7.05;;;2.40;;
52368;SDS011;38298;50.346;3.526;2024-01-15T10:14:12;5.90;;;2.50;;
52368;SDS011;38298;50.346;3.526;2024-01-15T10:16:38;6.05;;;2.10;;
52368;SDS011;38298;50.346;3.526;2024-01-15T10:19:04;5.35;;;1.90;;
52368;SDS011;38298;50.346;3.526;2024-01-15T10:21:34;7.00;;;1.85;;
52368;SDS011;38298;50.346;3.526;2024-01-15T10:24:00;8.63;;;2.13;;
52368;SDS011;38298;50.346;3.526;2024-01-15T10:26:26;8.05;;;2.25;;
52368;SDS011;38298;50.346;3.526;2024-01-15T10:28:52;10.90;;;2.25;;
52368;SDS011;38298;50.346;3.526;2024-01-15T10:31:18;6.50;;;1.67;;
52368;SDS011;38298;50.346;3.526;2024-01-15T10:33:44;6.93;;;1.80;;
52368;SDS011;38298;50.346;3.526;2024-01-15T10:36:10;5.50;;;1.75;;
52368;SDS011;38298;50.346;3.526;2024-01-15T10:38:37;7.38;;;2.08;;
52368;SDS011;38298;50.346;3.526;2024-01-15T10:41:03;8.40;;;1.70;;
52368;SDS011;38298;50.346;3.526;2024-01-15T10:43:29;9.40;;;1.50;;
52368;SDS011;38298;50.346;3.526;2024-01-15T10:45:55;8.05;;;1.92;;
52368;SDS011;38298;50.346;3.526;2024-01-15T10:48:21;3.00;;;1.50;;
52368;SDS011;38298;50.346;3.526;2024-01-15T10:50:47;6.72;;;1.45;;
52368;SDS011;38298;50.346;3.526;2024-01-15T10:53:14;3.10;;;1.45;;
52368;SDS011;38298;50.346;3.526;2024-01-15T10:55:41;2.22;;;1.30;;
52368;SDS011;38298;50.346;3.526;2024-01-15T10:58:07;4.03;;;1.50;;
52368;SDS011;38298;50.346;3.526;2024-01-15T11:00:34;8.88;;;2.22;;
52368;SDS011;38298;50.346;3.526;2024-01-15T11:03:02;7.07;;;1.40;;
52368;SDS011;38298;50.346;3.526;2024-01-15T11:05:33;6.45;;;1.20;;
52368;SDS011;38298;50.346;3.526;2024-01-15T11:07:59;5.95;;;1.17;;
52368;SDS011;38298;50.346;3.526;2024-01-15T11:10:38;7.70;;;1.52;;
52368;SDS011;38298;50.346;3.526;2024-01-15T11:13:13;4.95;;;1.20;;
52368;SDS011;38298;50.346;3.526;2024-01-15T11:15:58;5.60;;;1.17;;
52368;SDS011;38298;50.346;3.526;2024-01-15T11:18:26;4.35;;;1.55;;
52368;SDS011;38298;50.346;3.526;2024-01-15T11:23:43;5.43;;;1.20;;
52368;SDS011;38298;50.346;3.526;2024-01-15T11:28:56;4.82;;;1.20;;
52368;SDS011;38298;50.346;3.526;2024-01-15T11:34:10;6.47;;;1.40;;
52368;SDS011;38298;50.346;3.526;2024-01-15T11:41:54;7.15;;;1.20;;
52368;SDS011;38298;50.346;3.526;2024-01-15T11:44:21;4.50;;;1.13;;
52368;SDS011;38298;50.346;3.526;2024-01-15T11:46:52;4.05;;;1.17;;
52368;SDS011;38298;50.346;3.526;2024-01-15T11:52:07;3.53;;;1.33;;
52368;SDS011;38298;50.346;3.526;2024-01-15T11:54:37;3.30;;;0.93;;
52368;SDS011;38298;50.346;3.526;2024-01-15T11:57:04;5.38;;;1.15;;
52368;SDS011;38298;50.346;3.526;2024-01-15T11:59:35;4.95;;;1.00;;
52368;SDS011;38298;50.346;3.526;2024-01-15T12:02:02;4.50;;;0.88;;
52368;SDS011;38298;50.346;3.526;2024-01-15T12:04:28;4.53;;;1.20;;
52368;SDS011;38298;50.346;3.526;2024-01-15T12:06:54;2.92;;;1.00;;
52368;SDS011;38298;50.346;3.526;2024-01-15T12:09:20;1.85;;;0.80;;
52368;SDS011;38298;50.346;3.526;2024-01-15T12:11:48;5.32;;;1.10;;
52368;SDS011;38298;50.346;3.526;2024-01-15T12:14:15;2.83;;;1.00;;
52368;SDS011;38298;50.346;3.526;2024-01-15T12:16:42;6.57;;;1.23;;
52368;SDS011;38298;50.346;3.526;2024-01-15T12:19:08;7.90;;;1.30;;
52368;SDS011;38298;50.346;3.526;2024-01-15T12:21:34;4.13;;;1.08;;
52368;SDS011;38298;50.346;3.526;2024-01-15T12:24:00;5.18;;;1.40;;
52368;SDS011;38298;50.346;3.526;2024-01-15T12:26:26;4.85;;;1.00;;
52368;SDS011;38298;50.346;3.526;2024-01-15T12:28:52;3.88;;;0.98;;
52368;SDS011;38298;50.346;3.526;2024-01-15T12:31:18;4.95;;;0.93;;
52368;SDS011;38298;50.346;3.526;2024-01-15T12:33:44;5.68;;;0.95;;
52368;SDS011;38298;50.346;3.526;2024-01-15T12:36:12;4.65;;;1.27;;
52368;SDS011;38298;50.346;3.526;2024-01-15T12:38:38;4.80;;;1.30;;
52368;SDS011;38298;50.346;3.526;2024-01-15T12:41:04;4.50;;;1.27;;
52368;SDS011;38298;50.346;3.526;2024-01-15T12:43:30;7.22;;;1.45;;
52368;SDS011;38298;50.346;3.526;2024-01-15T12:45:56;10.48;;;1.73;;
52368;SDS011;38298;50.346;3.526;2024-01-15T12:48:22;9.38;;;1.02;;
52368;SDS011;38298;50.346;3.526;2024-01-15T12:50:48;5.03;;;1.17;;
52368;SDS011;38298;50.346;3.526;2024-01-15T12:53:17;3.30;;;0.80;;
52368;SDS011;38298;50.346;3.526;2024-01-15T12:55:43;4.07;;;1.33;;
52368;SDS011;38298;50.346;3.526;2024-01-15T12:58:09;7.85;;;1.10;;
52368;SDS011;38298;50.346;3.526;2024-01-15T13:00:35;3.75;;;1.08;;
52368;SDS011;38298;50.346;3.526;2024-01-15T13:03:02;6.55;;;1.17;;
52368;SDS011;38298;50.346;3.526;2024-01-15T13:05:28;2.58;;;0.82;;
52368;SDS011;38298;50.346;3.526;2024-01-15T13:07:55;2.17;;;0.93;;
52368;SDS011;38298;50.346;3.526;2024-01-15T13:10:21;4.88;;;1.00;;
52368;SDS011;38298;50.346;3.526;2024-01-15T13:12:47;2.28;;;0.82;;
52368;SDS011;38298;50.346;3.526;2024-01-15T13:15:13;7.85;;;0.90;;
52368;SDS011;38298;50.346;3.526;2024-01-15T13:17:39;2.97;;;0.90;;
52368;SDS011;38298;50.346;3.526;2024-01-15T13:20:06;3.30;;;0.80;;
52368;SDS011;38298;50.346;3.526;2024-01-15T13:22:33;2.83;;;0.90;;
52368;SDS011;38298;50.346;3.526;2024-01-15T13:24:59;5.07;;;0.82;;
52368;SDS011;38298;50.346;3.526;2024-01-15T13:27:25;3.75;;;1.10;;
52368;SDS011;38298;50.346;3.526;2024-01-15T13:29:52;4.50;;;1.02;;
52368;SDS011;38298;50.346;3.526;2024-01-15T13:32:22;3.55;;;0.60;;
52368;SDS011;38298;50.346;3.526;2024-01-15T13:34:48;1.67;;;0.68;;
52368;SDS011;38298;50.346;3.526;2024-01-15T13:37:14;5.47;;;0.93;;
52368;SDS011;38298;50.346;3.526;2024-01-15T13:39:40;3.17;;;0.93;;
52368;SDS011;38298;50.346;3.526;2024-01-15T13:42:06;7.25;;;1.10;;
52368;SDS011;38298;50.346;3.526;2024-01-15T13:44:32;2.35;;;0.70;;
52368;SDS011;38298;50.346;3.526;2024-01-15T13:46:58;2.03;;;1.20;;
52368;SDS011;38298;50.346;3.526;2024-01-15T13:49:24;2.92;;;1.00;;
52368;SDS011;38298;50.346;3.526;2024-01-15T13:51:51;3.70;;;1.00;;
52368;SDS011;38298;50.346;3.526;2024-01-15T13:54:17;4.45;;;0.90;;
52368;SDS011;38298;50.346;3.526;2024-01-15T13:56:44;4.68;;;1.30;;
52368;SDS011;38298;50.346;3.526;2024-01-15T13:59:12;7.18;;;1.08;;
52368;SDS011;38298;50.346;3.526;2024-01-15T14:01:38;5.28;;;1.33;;
52368;SDS011;38298;50.346;3.526;2024-01-15T14:04:04;6.05;;;1.20;;
52368;SDS011;38298;50.346;3.526;2024-01-15T14:06:30;8.65;;;1.40;;
52368;SDS011;38298;50.346;3.526;2024-01-15T14:08:56;2.30;;;0.85;;
52368;SDS011;38298;50.346;3.526;2024-01-15T14:11:22;4.25;;;1.48;;
52368;SDS011;38298;50.346;3.526;2024-01-15T14:13:48;7.25;;;1.70;;
52368;SDS011;38298;50.346;3.526;2024-01-15T14:16:14;7.43;;;1.48;;
52368;SDS011;38298;50.346;3.526;2024-01-15T14:18:40;5.95;;;1.40;;
52368;SDS011;38298;50.346;3.526;2024-01-15T14:21:06;8.20;;;1.48;;
52368;SDS011;38298;50.346;3.526;2024-01-15T14:23:32;5.63;;;1.10;;
52368;SDS011;38298;50.346;3.526;2024-01-15T14:25:59;7.18;;;1.30;;
52368;SDS011;38298;50.346;3.526;2024-01-15T14:28:25;6.53;;;1.42;;
52368;SDS011;38298;50.346;3.526;2024-01-15T14:30:51;4.07;;;1.10;;
52368;SDS011;38298;50.346;3.526;2024-01-15T14:33:17;7.43;;;1.30;;
52368;SDS011;38298;50.346;3.526;2024-01-15T14:35:43;3.08;;;1.10;;
52368;SDS011;38298;50.346;3.526;2024-01-15T14:38:09;6.05;;;1.20;;
52368;SDS011;38298;50.346;3.526;2024-01-15T14:40:35;3.72;;;1.30;;
52368;SDS011;38298;50.346;3.526;2024-01-15T14:43:02;5.32;;;1.30;;
52368;SDS011;38298;50.346;3.526;2024-01-15T14:45:28;8.20;;;1.27;;
52368;SDS011;38298;50.346;3.526;2024-01-15T14:47:55;7.15;;;1.10;;